sensor_id;sensor_type;location;lat;lon;timestamp;P1;durP1;ratioP1;P2;durP2;ratioP2
32365;SDS011;18837;46.832;16.838;2022-08-21T00:01:32;0.70;;;0.70;;
32365;SDS011;18837;46.832;16.838;2022-08-21T00:03:58;0.70;;;0.70;;
32365;SDS011;18837;46.832;16.838;2022-08-21T00:06:29;1.00;;;0.70;;
32365;SDS011;18837;46.832;16.838;2022-08-21T00:08:55;1.23;;;0.60;;
32365;SDS011;18837;46.832;16.838;2022-08-21T00:11:21;0.50;;;0.50;;
32365;SDS011;18837;46.832;16.838;2022-08-21T00:13:47;0.97;;;0.60;;
32365;SDS011;18837;46.832;16.838;2022-08-21T00:16:13;1.00;;;0.70;;
32365;SDS011;18837;46.832;16.838;2022-08-21T00:18:39;1.00;;;0.90;;
32365;SDS011;18837;46.832;16.838;2022-08-21T00:21:05;1.03;;;0.70;;
32365;SDS011;18837;46.832;16.838;2022-08-21T00:23:32;2.40;;;0.77;;
32365;SDS011;18837;46.832;16.838;2022-08-21T00:25:59;0.60;;;0.60;;
32365;SDS011;18837;46.832;16.838;2022-08-21T00:28:25;0.70;;;0.70;;
32365;SDS011;18837;46.832;16.838;2022-08-21T00:30:51;0.80;;;0.60;;
32365;SDS011;18837;46.832;16.838;2022-08-21T00:33:16;0.90;;;0.70;;
32365;SDS011;18837;46.832;16.838;2022-08-21T00:35:43;0.70;;;0.70;;
32365;SDS011;18837;46.832;16.838;2022-08-21T00:38:09;1.30;;;0.87;;
32365;SDS011;18837;46.832;16.838;2022-08-21T00:40:40;1.23;;;1.13;;
32365;SDS011;18837;46.832;16.838;2022-08-21T00:43:10;0.80;;;0.70;;
32365;SDS011;18837;46.832;16.838;2022-08-21T00:45:38;1.47;;;1.00;;
32365;SDS011;18837;46.832;16.838;2022-08-21T00:48:04;0.70;;;0.70;;
32365;SDS011;18837;46.832;16.838;2022-08-21T00:50:32;0.60;;;0.60;;
32365;SDS011;18837;46.832;16.838;2022-08-21T00:53:00;0.67;;;0.67;;
32365;SDS011;18837;46.832;16.838;2022-08-21T00:55:27;1.07;;;0.80;;
32365;SDS011;18837;46.832;16.838;2022-08-21T00:57:55;0.97;;;0.70;;
32365;SDS011;18837;46.832;16.838;2022-08-21T01:00:24;1.43;;;0.70;;
32365;SDS011;18837;46.832;16.838;2022-08-21T01:02:59;0.90;;;0.67;;
32365;SDS011;18837;46.832;16.838;2022-08-21T01:05:27;2.03;;;1.10;;
32365;SDS011;18837;46.832;16.838;2022-08-21T01:07:54;0.67;;;0.53;;
32365;SDS011;18837;46.832;16.838;2022-08-21T01:10:22;1.87;;;0.80;;
32365;SDS011;18837;46.832;16.838;2022-08-21T01:12:48;0.80;;;0.80;;
32365;SDS011;18837;46.832;16.838;2022-08-21T01:15:16;0.80;;;0.60;;
32365;SDS011;18837;46.832;16.838;2022-08-21T01:17:43;0.77;;;0.63;;
32365;SDS011;18837;46.832;16.838;2022-08-21T01:20:09;2.60;;;0.90;;
32365;SDS011;18837;46.832;16.838;2022-08-21T01:22:36;1.77;;;0.70;;
32365;SDS011;18837;46.832;16.838;2022-08-21T01:25:04;0.60;;;0.60;;
32365;SDS011;18837;46.832;16.838;2022-08-21T01:27:32;0.70;;;0.70;;
32365;SDS011;18837;46.832;16.838;2022-08-21T01:29:59;1.17;;;0.70;;
32365;SDS011;18837;46.832;16.838;2022-08-21T01:32:33;1.63;;;0.83;;
32365;SDS011;18837;46.832;16.838;2022-08-21T01:34:58;0.93;;;0.70;;
32365;SDS011;18837;46.832;16.838;2022-08-21T01:37:24;1.23;;;0.60;;
32365;SDS011;18837;46.832;16.838;2022-08-21T01:39:50;1.90;;;1.10;;
32365;SDS011;18837;46.832;16.838;2022-08-21T01:42:15;0.60;;;0.60;;
32365;SDS011;18837;46.832;16.838;2022-08-21T01:44:41;1.27;;;0.80;;
32365;SDS011;18837;46.832;16.838;2022-08-21T01:47:08;0.83;;;0.60;;
32365;SDS011;18837;46.832;16.838;2022-08-21T01:49:37;1.77;;;0.90;;
32365;SDS011;18837;46.832;16.838;2022-08-21T01:52:04;0.67;;;0.67;;
32365;SDS011;18837;46.832;16.838;2022-08-21T01:54:30;4.13;;;0.70;;
32365;SDS011;18837;46.832;16.838;2022-08-21T01:56:56;1.03;;;0.93;;
32365;SDS011;18837;46.832;16.838;2022-08-21T01:59:24;0.80;;;0.80;;
32365;SDS011;18837;46.832;16.838;2022-08-21T02:01:50;0.87;;;0.70;;
32365;SDS011;18837;46.832;16.838;2022-08-21T02:04:18;0.83;;;0.70;;
32365;SDS011;18837;46.832;16.838;2022-08-21T02:06:44;1.30;;;0.70;;
32365;SDS011;18837;46.832;16.838;2022-08-21T02:09:10;2.23;;;0.70;;
32365;SDS011;18837;46.832;16.838;2022-08-21T02:11:37;1.90;;;0.90;;
32365;SDS011;18837;46.832;16.838;2022-08-21T02:14:06;2.20;;;1.00;;
32365;SDS011;18837;46.832;16.838;2022-08-21T02:16:37;0.97;;;0.70;;
32365;SDS011;18837;46.832;16.838;2022-08-21T02:19:03;2.50;;;0.70;;
32365;SDS011;18837;46.832;16.838;2022-08-21T02:21:29;0.80;;;0.80;;
32365;SDS011;18837;46.832;16.838;2022-08-21T02:23:56;1.37;;;1.17;;
32365;SDS011;18837;46.832;16.838;2022-08-21T02:26:21;1.03;;;0.80;;
32365;SDS011;18837;46.832;16.838;2022-08-21T02:28:47;0.60;;;0.60;;
32365;SDS011;18837;46.832;16.838;2022-08-21T02:31:13;0.90;;;0.90;;
32365;SDS011;18837;46.832;16.838;2022-08-21T02:33:39;0.70;;;0.70;;
32365;SDS011;18837;46.832;16.838;2022-08-21T02:36:05;1.23;;;0.80;;
32365;SDS011;18837;46.832;16.838;2022-08-21T02:38:32;0.90;;;0.90;;
32365;SDS011;18837;46.832;16.838;2022-08-21T02:41:02;1.70;;;0.73;;
32365;SDS011;18837;46.832;16.838;2022-08-21T02:43:29;1.30;;;0.83;;
32365;SDS011;18837;46.832;16.838;2022-08-21T02:45:55;1.67;;;0.70;;
32365;SDS011;18837;46.832;16.838;2022-08-21T02:48:24;0.70;;;0.70;;
32365;SDS011;18837;46.832;16.838;2022-08-21T02:53:45;0.80;;;0.80;;
32365;SDS011;18837;46.832;16.838;2022-08-21T02:56:12;1.87;;;1.00;;
32365;SDS011;18837;46.832;16.838;2022-08-21T02:58:43;1.03;;;0.70;;
32365;SDS011;18837;46.832;16.838;2022-08-21T03:01:12;1.23;;;0.80;;
32365;SDS011;18837;46.832;16.838;2022-08-21T03:03:38;0.90;;;0.90;;
32365;SDS011;18837;46.832;16.838;2022-08-21T03:06:06;2.30;;;0.87;;
32365;SDS011;18837;46.832;16.838;2022-08-21T03:08:33;0.77;;;0.77;;
32365;SDS011;18837;46.832;16.838;2022-08-21T03:10:59;0.87;;;0.80;;
32365;SDS011;18837;46.832;16.838;2022-08-21T03:13:26;1.70;;;1.03;;
32365;SDS011;18837;46.832;16.838;2022-08-21T03:15:53;0.90;;;0.87;;
32365;SDS011;18837;46.832;16.838;2022-08-21T03:18:20;1.27;;;0.60;;
32365;SDS011;18837;46.832;16.838;2022-08-21T03:20:46;1.33;;;0.87;;
32365;SDS011;18837;46.832;16.838;2022-08-21T03:23:13;0.90;;;0.80;;
32365;SDS011;18837;46.832;16.838;2022-08-21T03:25:40;0.60;;;0.60;;
32365;SDS011;18837;46.832;16.838;2022-08-21T03:28:08;0.73;;;0.73;;
32365;SDS011;18837;46.832;16.838;2022-08-21T03:30:37;0.80;;;0.80;;
32365;SDS011;18837;46.832;16.838;2022-08-21T03:33:02;1.00;;;0.90;;
32365;SDS011;18837;46.832;16.838;2022-08-21T03:35:28;0.70;;;0.70;;
32365;SDS011;18837;46.832;16.838;2022-08-21T03:37:54;1.70;;;0.70;;
32365;SDS011;18837;46.832;16.838;2022-08-21T03:40:23;0.80;;;0.80;;
32365;SDS011;18837;46.832;16.838;2022-08-21T03:42:50;1.00;;;0.90;;
32365;SDS011;18837;46.832;16.838;2022-08-21T03:45:16;1.97;;;0.70;;
32365;SDS011;18837;46.832;16.838;2022-08-21T03:47:50;0.60;;;0.60;;
32365;SDS011;18837;46.832;16.838;2022-08-21T03:50:21;1.40;;;0.90;;
32365;SDS011;18837;46.832;16.838;2022-08-21T03:52:48;1.67;;;1.00;;
32365;SDS011;18837;46.832;16.838;2022-08-21T03:55:14;1.23;;;0.93;;
32365;SDS011;18837;46.832;16.838;2022-08-21T03:57:40;1.20;;;0.67;;
32365;SDS011;18837;46.832;16.838;2022-08-21T04:00:06;1.03;;;0.73;;
32365;SDS011;18837;46.832;16.838;2022-08-21T04:02:34;1.50;;;0.93;;
32365;SDS011;18837;46.832;16.838;2022-08-21T04:05:00;0.93;;;0.90;;
32365;SDS011;18837;46.832;16.838;2022-08-21T04:07:26;1.13;;;0.87;;
32365;SDS011;18837;46.832;16.838;2022-08-21T04:09:52;1.50;;;0.83;;
32365;SDS011;18837;46.832;16.838;2022-08-21T04:12:18;0.90;;;0.80;;
32365;SDS011;18837;46.832;16.838;2022-08-21T04:14:44;2.67;;;1.00;;
32365;SDS011;18837;46.832;16.838;2022-08-21T04:17:10;1.77;;;0.90;;
32365;SDS011;18837;46.832;16.838;2022-08-21T04:19:35;1.03;;;0.80;;
32365;SDS011;18837;46.832;16.838;2022-08-21T04:22:01;1.37;;;0.80;;
32365;SDS011;18837;46.832;16.838;2022-08-21T04:24:26;2.43;;;0.60;;
32365;SDS011;18837;46.832;16.838;2022-08-21T04:26:52;0.80;;;0.70;;
32365;SDS011;18837;46.832;16.838;2022-08-21T04:29:18;2.10;;;0.90;;
32365;SDS011;18837;46.832;16.838;2022-08-21T04:31:44;1.93;;;0.90;;
32365;SDS011;18837;46.832;16.838;2022-08-21T04:34:10;2.17;;;0.77;;
32365;SDS011;18837;46.832;16.838;2022-08-21T04:36:36;0.80;;;0.80;;
32365;SDS011;18837;46.832;16.838;2022-08-21T04:39:02;1.00;;;0.90;;
32365;SDS011;18837;46.832;16.838;2022-08-21T04:41:28;0.97;;;0.90;;
32365;SDS011;18837;46.832;16.838;2022-08-21T04:43:54;0.90;;;0.80;;
32365;SDS011;18837;46.832;16.838;2022-08-21T04:46:21;2.30;;;1.00;;
32365;SDS011;18837;46.832;16.838;2022-08-21T04:48:47;0.87;;;0.80;;
32365;SDS011;18837;46.832;16.838;2022-08-21T04:51:17;0.97;;;0.80;;
32365;SDS011;18837;46.832;16.838;2022-08-21T04:53:52;0.93;;;0.87;;
32365;SDS011;18837;46.832;16.838;2022-08-21T04:56:26;1.20;;;0.90;;
32365;SDS011;18837;46.832;16.838;2022-08-21T04:58:56;1.10;;;0.80;;
32365;SDS011;18837;46.832;16.838;2022-08-21T05:01:25;1.10;;;0.73;;
32365;SDS011;18837;46.832;16.838;2022-08-21T05:03:54;1.47;;;0.87;;
32365;SDS011;18837;46.832;16.838;2022-08-21T05:06:23;2.97;;;0.80;;
32365;SDS011;18837;46.832;16.838;2022-08-21T05:08:50;1.00;;;0.73;;
32365;SDS011;18837;46.832;16.838;2022-08-21T05:11:19;0.70;;;0.70;;
32365;SDS011;18837;46.832;16.838;2022-08-21T05:13:47;0.80;;;0.60;;
32365;SDS011;18837;46.832;16.838;2022-08-21T05:16:13;1.13;;;0.90;;
32365;SDS011;18837;46.832;16.838;2022-08-21T05:18:40;2.90;;;0.90;;
32365;SDS011;18837;46.832;16.838;2022-08-21T05:21:06;2.23;;;1.00;;
32365;SDS011;18837;46.832;16.838;2022-08-21T05:23:32;1.17;;;1.00;;
32365;SDS011;18837;46.832;16.838;2022-08-21T05:25:58;1.70;;;0.97;;
32365;SDS011;18837;46.832;16.838;2022-08-21T05:28:25;1.80;;;0.90;;
32365;SDS011;18837;46.832;16.838;2022-08-21T05:30:51;0.80;;;0.80;;
32365;SDS011;18837;46.832;16.838;2022-08-21T05:33:18;0.97;;;0.77;;
32365;SDS011;18837;46.832;16.838;2022-08-21T05:35:43;0.80;;;0.80;;
32365;SDS011;18837;46.832;16.838;2022-08-21T05:38:09;0.83;;;0.80;;
32365;SDS011;18837;46.832;16.838;2022-08-21T05:40:35;3.13;;;1.00;;
32365;SDS011;18837;46.832;16.838;2022-08-21T05:43:01;0.90;;;0.90;;
32365;SDS011;18837;46.832;16.838;2022-08-21T05:45:28;1.10;;;1.00;;
32365;SDS011;18837;46.832;16.838;2022-08-21T05:47:56;1.60;;;1.07;;
32365;SDS011;18837;46.832;16.838;2022-08-21T05:50:22;2.30;;;0.90;;
32365;SDS011;18837;46.832;16.838;2022-08-21T05:52:47;1.67;;;0.70;;
32365;SDS011;18837;46.832;16.838;2022-08-21T05:55:13;1.80;;;0.97;;
32365;SDS011;18837;46.832;16.838;2022-08-21T05:57:39;8.73;;;4.43;;
32365;SDS011;18837;46.832;16.838;2022-08-21T06:00:07;10.03;;;7.33;;
32365;SDS011;18837;46.832;16.838;2022-08-21T06:02:38;5.73;;;3.87;;
32365;SDS011;18837;46.832;16.838;2022-08-21T06:05:04;4.00;;;2.60;;
32365;SDS011;18837;46.832;16.838;2022-08-21T06:07:31;2.73;;;1.80;;
32365;SDS011;18837;46.832;16.838;2022-08-21T06:09:57;3.43;;;1.87;;
32365;SDS011;18837;46.832;16.838;2022-08-21T06:12:22;2.17;;;1.40;;
32365;SDS011;18837;46.832;16.838;2022-08-21T06:14:48;2.00;;;1.53;;
32365;SDS011;18837;46.832;16.838;2022-08-21T06:17:17;1.23;;;1.10;;
32365;SDS011;18837;46.832;16.838;2022-08-21T06:19:43;2.93;;;1.10;;
32365;SDS011;18837;46.832;16.838;2022-08-21T06:22:09;3.10;;;1.10;;
32365;SDS011;18837;46.832;16.838;2022-08-21T06:24:35;6.93;;;1.57;;
32365;SDS011;18837;46.832;16.838;2022-08-21T06:27:07;1.43;;;1.10;;
32365;SDS011;18837;46.832;16.838;2022-08-21T06:29:34;1.27;;;1.00;;
32365;SDS011;18837;46.832;16.838;2022-08-21T06:32:00;1.30;;;1.20;;
32365;SDS011;18837;46.832;16.838;2022-08-21T06:34:27;5.60;;;1.20;;
32365;SDS011;18837;46.832;16.838;2022-08-21T06:36:52;1.23;;;0.77;;
32365;SDS011;18837;46.832;16.838;2022-08-21T06:39:18;2.40;;;0.97;;
32365;SDS011;18837;46.832;16.838;2022-08-21T06:41:44;1.43;;;0.90;;
32365;SDS011;18837;46.832;16.838;2022-08-21T06:44:11;1.43;;;1.00;;
32365;SDS011;18837;46.832;16.838;2022-08-21T06:46:40;1.27;;;1.03;;
32365;SDS011;18837;46.832;16.838;2022-08-21T06:49:06;1.13;;;0.80;;
32365;SDS011;18837;46.832;16.838;2022-08-21T06:51:33;1.27;;;1.00;;
32365;SDS011;18837;46.832;16.838;2022-08-21T06:53:59;2.20;;;1.10;;
32365;SDS011;18837;46.832;16.838;2022-08-21T06:56:25;2.60;;;1.00;;
32365;SDS011;18837;46.832;16.838;2022-08-21T06:58:51;1.67;;;0.73;;
32365;SDS011;18837;46.832;16.838;2022-08-21T07:01:18;1.00;;;0.90;;
32365;SDS011;18837;46.832;16.838;2022-08-21T07:03:47;1.73;;;0.83;;
32365;SDS011;18837;46.832;16.838;2022-08-21T07:06:12;1.17;;;1.03;;
32365;SDS011;18837;46.832;16.838;2022-08-21T07:08:40;1.73;;;0.90;;
32365;SDS011;18837;46.832;16.838;2022-08-21T07:11:07;0.70;;;0.70;;
32365;SDS011;18837;46.832;16.838;2022-08-21T07:13:44;0.80;;;0.80;;
32365;SDS011;18837;46.832;16.838;2022-08-21T07:16:11;0.73;;;0.73;;
32365;SDS011;18837;46.832;16.838;2022-08-21T07:18:36;0.70;;;0.70;;
32365;SDS011;18837;46.832;16.838;2022-08-21T07:21:03;1.00;;;0.90;;
32365;SDS011;18837;46.832;16.838;2022-08-21T07:23:31;1.77;;;0.90;;
32365;SDS011;18837;46.832;16.838;2022-08-21T07:25:59;0.80;;;0.80;;
32365;SDS011;18837;46.832;16.838;2022-08-21T07:28:25;1.13;;;1.00;;
32365;SDS011;18837;46.832;16.838;2022-08-21T07:30:53;1.20;;;0.90;;
32365;SDS011;18837;46.832;16.838;2022-08-21T07:33:20;1.10;;;1.00;;
32365;SDS011;18837;46.832;16.838;2022-08-21T07:35:46;1.30;;;0.93;;
32365;SDS011;18837;46.832;16.838;2022-08-21T07:38:13;1.10;;;1.00;;
32365;SDS011;18837;46.832;16.838;2022-08-21T07:40:39;0.83;;;0.73;;
32365;SDS011;18837;46.832;16.838;2022-08-21T07:43:05;0.80;;;0.80;;
32365;SDS011;18837;46.832;16.838;2022-08-21T07:45:31;0.80;;;0.80;;
32365;SDS011;18837;46.832;16.838;2022-08-21T07:47:57;1.83;;;0.83;;
32365;SDS011;18837;46.832;16.838;2022-08-21T07:50:24;0.80;;;0.73;;
32365;SDS011;18837;46.832;16.838;2022-08-21T07:52:50;0.80;;;0.80;;
32365;SDS011;18837;46.832;16.838;2022-08-21T07:55:18;1.00;;;0.90;;
32365;SDS011;18837;46.832;16.838;2022-08-21T07:57:45;0.80;;;0.80;;
32365;SDS011;18837;46.832;16.838;2022-08-21T08:00:13;0.87;;;0.70;;
32365;SDS011;18837;46.832;16.838;2022-08-21T08:02:40;0.87;;;0.87;;
32365;SDS011;18837;46.832;16.838;2022-08-21T08:05:10;0.80;;;0.70;;
32365;SDS011;18837;46.832;16.838;2022-08-21T08:07:36;0.87;;;0.87;;
32365;SDS011;18837;46.832;16.838;2022-08-21T08:10:03;0.73;;;0.70;;
32365;SDS011;18837;46.832;16.838;2022-08-21T08:12:33;0.80;;;0.80;;
32365;SDS011;18837;46.832;16.838;2022-08-21T08:15:00;0.80;;;0.80;;
32365;SDS011;18837;46.832;16.838;2022-08-21T08:17:26;0.90;;;0.80;;
32365;SDS011;18837;46.832;16.838;2022-08-21T08:19:54;1.77;;;0.63;;
32365;SDS011;18837;46.832;16.838;2022-08-21T08:22:20;0.77;;;0.77;;
32365;SDS011;18837;46.832;16.838;2022-08-21T08:24:51;0.67;;;0.67;;
32365;SDS011;18837;46.832;16.838;2022-08-21T08:27:17;0.70;;;0.70;;
32365;SDS011;18837;46.832;16.838;2022-08-21T08:29:44;2.00;;;1.00;;
32365;SDS011;18837;46.832;16.838;2022-08-21T08:32:10;1.00;;;0.90;;
32365;SDS011;18837;46.832;16.838;2022-08-21T08:34:37;0.70;;;0.70;;
32365;SDS011;18837;46.832;16.838;2022-08-21T08:37:05;1.07;;;0.97;;
32365;SDS011;18837;46.832;16.838;2022-08-21T08:39:32;0.93;;;0.90;;
32365;SDS011;18837;46.832;16.838;2022-08-21T08:42:09;0.80;;;0.80;;
32365;SDS011;18837;46.832;16.838;2022-08-21T08:44:44;0.70;;;0.70;;
32365;SDS011;18837;46.832;16.838;2022-08-21T08:47:11;2.23;;;0.90;;
32365;SDS011;18837;46.832;16.838;2022-08-21T08:49:58;1.90;;;0.90;;
32365;SDS011;18837;46.832;16.838;2022-08-21T08:52:41;0.80;;;0.80;;
32365;SDS011;18837;46.832;16.838;2022-08-21T08:55:21;2.03;;;0.70;;
32365;SDS011;18837;46.832;16.838;2022-08-21T08:57:51;1.50;;;0.60;;
32365;SDS011;18837;46.832;16.838;2022-08-21T09:00:19;2.90;;;0.93;;
32365;SDS011;18837;46.832;16.838;2022-08-21T09:02:46;2.07;;;0.80;;
32365;SDS011;18837;46.832;16.838;2022-08-21T09:05:19;6.13;;;1.10;;
32365;SDS011;18837;46.832;16.838;2022-08-21T09:13:24;2.13;;;1.40;;
32365;SDS011;18837;46.832;16.838;2022-08-21T09:15:56;5.37;;;2.03;;
32365;SDS011;18837;46.832;16.838;2022-08-21T09:24:29;5.50;;;1.80;;
32365;SDS011;18837;46.832;16.838;2022-08-21T09:27:12;6.23;;;1.97;;
32365;SDS011;18837;46.832;16.838;2022-08-21T09:29:47;3.60;;;1.60;;
32365;SDS011;18837;46.832;16.838;2022-08-21T09:32:29;3.00;;;1.50;;
32365;SDS011;18837;46.832;16.838;2022-08-21T09:35:05;2.17;;;1.67;;
32365;SDS011;18837;46.832;16.838;2022-08-21T09:37:32;3.37;;;1.40;;
32365;SDS011;18837;46.832;16.838;2022-08-21T09:40:00;2.23;;;1.80;;
32365;SDS011;18837;46.832;16.838;2022-08-21T09:42:30;1.73;;;1.30;;
32365;SDS011;18837;46.832;16.838;2022-08-21T09:45:09;2.57;;;1.20;;
32365;SDS011;18837;46.832;16.838;2022-08-21T09:47:50;2.03;;;1.40;;
32365;SDS011;18837;46.832;16.838;2022-08-21T09:50:23;2.33;;;1.37;;
32365;SDS011;18837;46.832;16.838;2022-08-21T09:52:53;1.40;;;1.07;;
32365;SDS011;18837;46.832;16.838;2022-08-21T09:58:46;1.53;;;1.40;;
32365;SDS011;18837;46.832;16.838;2022-08-21T10:01:18;1.30;;;1.20;;
32365;SDS011;18837;46.832;16.838;2022-08-21T10:04:09;1.17;;;1.07;;
32365;SDS011;18837;46.832;16.838;2022-08-21T10:06:35;1.30;;;1.20;;
32365;SDS011;18837;46.832;16.838;2022-08-21T10:09:04;1.77;;;1.03;;
32365;SDS011;18837;46.832;16.838;2022-08-21T10:11:30;1.23;;;1.13;;
32365;SDS011;18837;46.832;16.838;2022-08-21T10:13:59;1.20;;;1.10;;
32365;SDS011;18837;46.832;16.838;2022-08-21T10:19:17;1.40;;;1.30;;
32365;SDS011;18837;46.832;16.838;2022-08-21T10:25:02;1.50;;;1.40;;
32365;SDS011;18837;46.832;16.838;2022-08-21T10:36:02;1.30;;;1.20;;
32365;SDS011;18837;46.832;16.838;2022-08-21T10:50:20;1.57;;;1.47;;
32365;SDS011;18837;46.832;16.838;2022-08-21T10:53:22;1.10;;;1.00;;
32365;SDS011;18837;46.832;16.838;2022-08-21T11:01:26;2.03;;;1.17;;
32365;SDS011;18837;46.832;16.838;2022-08-21T11:04:07;1.47;;;1.03;;
32365;SDS011;18837;46.832;16.838;2022-08-21T11:07:02;1.20;;;1.10;;
32365;SDS011;18837;46.832;16.838;2022-08-21T11:09:41;1.17;;;1.03;;
32365;SDS011;18837;46.832;16.838;2022-08-21T11:14:51;1.00;;;1.00;;
32365;SDS011;18837;46.832;16.838;2022-08-21T11:17:39;1.20;;;1.10;;
32365;SDS011;18837;46.832;16.838;2022-08-21T11:20:22;1.03;;;0.93;;
32365;SDS011;18837;46.832;16.838;2022-08-21T11:23:15;1.10;;;0.90;;
32365;SDS011;18837;46.832;16.838;2022-08-21T11:25:58;0.90;;;0.90;;
32365;SDS011;18837;46.832;16.838;2022-08-21T11:28:31;1.10;;;1.00;;
32365;SDS011;18837;46.832;16.838;2022-08-21T11:31:08;1.20;;;1.10;;
32365;SDS011;18837;46.832;16.838;2022-08-21T11:36:41;1.20;;;1.10;;
32365;SDS011;18837;46.832;16.838;2022-08-21T11:50:35;1.10;;;1.00;;
32365;SDS011;18837;46.832;16.838;2022-08-21T11:53:10;1.00;;;1.00;;
32365;SDS011;18837;46.832;16.838;2022-08-21T11:55:46;1.63;;;1.10;;
32365;SDS011;18837;46.832;16.838;2022-08-21T11:58:39;1.63;;;1.30;;
32365;SDS011;18837;46.832;16.838;2022-08-21T12:01:27;1.07;;;1.07;;
32365;SDS011;18837;46.832;16.838;2022-08-21T12:04:04;0.90;;;0.90;;
32365;SDS011;18837;46.832;16.838;2022-08-21T12:06:46;3.17;;;0.90;;
32365;SDS011;18837;46.832;16.838;2022-08-21T12:12:03;0.80;;;0.80;;
32365;SDS011;18837;46.832;16.838;2022-08-21T12:14:45;1.47;;;1.10;;
32365;SDS011;18837;46.832;16.838;2022-08-21T12:17:17;1.10;;;0.90;;
32365;SDS011;18837;46.832;16.838;2022-08-21T12:19:45;1.00;;;1.00;;
32365;SDS011;18837;46.832;16.838;2022-08-21T12:22:21;1.27;;;1.17;;
32365;SDS011;18837;46.832;16.838;2022-08-21T12:25:06;1.00;;;1.00;;
32365;SDS011;18837;46.832;16.838;2022-08-21T12:27:44;1.10;;;1.10;;
32365;SDS011;18837;46.832;16.838;2022-08-21T12:32:58;1.95;;;1.00;;
32365;SDS011;18837;46.832;16.838;2022-08-21T12:35:32;1.40;;;1.10;;
32365;SDS011;18837;46.832;16.838;2022-08-21T12:40:52;1.60;;;1.20;;
32365;SDS011;18837;46.832;16.838;2022-08-21T12:43:33;6.73;;;1.23;;
32365;SDS011;18837;46.832;16.838;2022-08-21T12:46:19;2.27;;;1.00;;
32365;SDS011;18837;46.832;16.838;2022-08-21T12:48:50;7.63;;;1.53;;
32365;SDS011;18837;46.832;16.838;2022-08-21T12:54:27;1.10;;;1.00;;
32365;SDS011;18837;46.832;16.838;2022-08-21T12:57:00;2.60;;;0.73;;
32365;SDS011;18837;46.832;16.838;2022-08-21T12:59:36;2.50;;;0.80;;
32365;SDS011;18837;46.832;16.838;2022-08-21T13:02:10;3.13;;;1.00;;
32365;SDS011;18837;46.832;16.838;2022-08-21T13:04:45;3.00;;;1.00;;
32365;SDS011;18837;46.832;16.838;2022-08-21T13:07:13;1.13;;;1.00;;
32365;SDS011;18837;46.832;16.838;2022-08-21T13:09:48;2.23;;;0.80;;
32365;SDS011;18837;46.832;16.838;2022-08-21T13:12:17;1.27;;;1.03;;
32365;SDS011;18837;46.832;16.838;2022-08-21T13:14:46;2.10;;;0.80;;
32365;SDS011;18837;46.832;16.838;2022-08-21T13:17:16;2.57;;;0.90;;
32365;SDS011;18837;46.832;16.838;2022-08-21T13:19:58;2.83;;;0.90;;
32365;SDS011;18837;46.832;16.838;2022-08-21T13:22:26;1.73;;;0.70;;
32365;SDS011;18837;46.832;16.838;2022-08-21T13:24:55;3.30;;;1.00;;
32365;SDS011;18837;46.832;16.838;2022-08-21T13:27:23;1.47;;;0.90;;
32365;SDS011;18837;46.832;16.838;2022-08-21T13:30:00;2.20;;;0.80;;
32365;SDS011;18837;46.832;16.838;2022-08-21T13:33:00;1.40;;;1.00;;
32365;SDS011;18837;46.832;16.838;2022-08-21T13:35:29;1.43;;;1.00;;
32365;SDS011;18837;46.832;16.838;2022-08-21T13:38:00;1.53;;;0.70;;
32365;SDS011;18837;46.832;16.838;2022-08-21T13:40:45;1.27;;;1.07;;
32365;SDS011;18837;46.832;16.838;2022-08-21T13:43:17;3.13;;;0.90;;
32365;SDS011;18837;46.832;16.838;2022-08-21T13:45:52;0.97;;;0.60;;
32365;SDS011;18837;46.832;16.838;2022-08-21T13:48:33;0.80;;;0.70;;
32365;SDS011;18837;46.832;16.838;2022-08-21T13:51:05;0.80;;;0.70;;
32365;SDS011;18837;46.832;16.838;2022-08-21T13:53:50;0.60;;;0.60;;
32365;SDS011;18837;46.832;16.838;2022-08-21T13:56:25;0.77;;;0.77;;
32365;SDS011;18837;46.832;16.838;2022-08-21T13:58:54;2.17;;;0.80;;
32365;SDS011;18837;46.832;16.838;2022-08-21T14:04:23;1.13;;;0.63;;
32365;SDS011;18837;46.832;16.838;2022-08-21T14:06:55;0.77;;;0.60;;
32365;SDS011;18837;46.832;16.838;2022-08-21T14:09:32;1.77;;;0.90;;
32365;SDS011;18837;46.832;16.838;2022-08-21T14:12:02;0.90;;;0.80;;
32365;SDS011;18837;46.832;16.838;2022-08-21T14:14:38;0.60;;;0.60;;
32365;SDS011;18837;46.832;16.838;2022-08-21T14:17:06;0.53;;;0.53;;
32365;SDS011;18837;46.832;16.838;2022-08-21T14:19:41;1.23;;;0.60;;
32365;SDS011;18837;46.832;16.838;2022-08-21T14:30:45;1.50;;;0.50;;
32365;SDS011;18837;46.832;16.838;2022-08-21T14:33:13;0.73;;;0.50;;
32365;SDS011;18837;46.832;16.838;2022-08-21T14:35:48;1.07;;;0.53;;
32365;SDS011;18837;46.832;16.838;2022-08-21T14:38:18;3.20;;;0.67;;
32365;SDS011;18837;46.832;16.838;2022-08-21T14:40:47;0.67;;;0.60;;
32365;SDS011;18837;46.832;16.838;2022-08-21T14:43:21;0.77;;;0.60;;
32365;SDS011;18837;46.832;16.838;2022-08-21T14:45:48;0.80;;;0.53;;
32365;SDS011;18837;46.832;16.838;2022-08-21T14:48:14;0.50;;;0.50;;
32365;SDS011;18837;46.832;16.838;2022-08-21T14:50:40;0.97;;;0.60;;
32365;SDS011;18837;46.832;16.838;2022-08-21T14:53:06;0.83;;;0.67;;
32365;SDS011;18837;46.832;16.838;2022-08-21T14:55:53;1.27;;;0.70;;
32365;SDS011;18837;46.832;16.838;2022-08-21T14:58:36;0.50;;;0.50;;
32365;SDS011;18837;46.832;16.838;2022-08-21T15:01:17;0.80;;;0.53;;
32365;SDS011;18837;46.832;16.838;2022-08-21T15:03:45;2.50;;;0.60;;
32365;SDS011;18837;46.832;16.838;2022-08-21T15:06:13;3.40;;;0.90;;
32365;SDS011;18837;46.832;16.838;2022-08-21T15:08:39;0.57;;;0.50;;
32365;SDS011;18837;46.832;16.838;2022-08-21T15:11:07;0.57;;;0.50;;
32365;SDS011;18837;46.832;16.838;2022-08-21T15:13:36;1.27;;;0.70;;
32365;SDS011;18837;46.832;16.838;2022-08-21T15:16:03;0.93;;;0.60;;
32365;SDS011;18837;46.832;16.838;2022-08-21T15:18:29;1.73;;;0.87;;
32365;SDS011;18837;46.832;16.838;2022-08-21T15:20:56;3.87;;;0.80;;
32365;SDS011;18837;46.832;16.838;2022-08-21T15:23:22;2.67;;;0.60;;
32365;SDS011;18837;46.832;16.838;2022-08-21T15:25:48;2.43;;;0.70;;
32365;SDS011;18837;46.832;16.838;2022-08-21T15:28:15;1.10;;;0.50;;
32365;SDS011;18837;46.832;16.838;2022-08-21T15:30:48;1.77;;;0.70;;
32365;SDS011;18837;46.832;16.838;2022-08-21T15:33:17;0.93;;;0.77;;
32365;SDS011;18837;46.832;16.838;2022-08-21T15:35:46;5.10;;;0.90;;
32365;SDS011;18837;46.832;16.838;2022-08-21T15:38:13;1.77;;;0.70;;
32365;SDS011;18837;46.832;16.838;2022-08-21T15:40:40;3.03;;;0.73;;
32365;SDS011;18837;46.832;16.838;2022-08-21T15:43:18;2.23;;;0.60;;
32365;SDS011;18837;46.832;16.838;2022-08-21T15:45:48;2.03;;;0.73;;
32365;SDS011;18837;46.832;16.838;2022-08-21T15:48:16;0.93;;;0.77;;
32365;SDS011;18837;46.832;16.838;2022-08-21T15:50:47;4.67;;;0.90;;
32365;SDS011;18837;46.832;16.838;2022-08-21T15:53:13;1.80;;;0.80;;
32365;SDS011;18837;46.832;16.838;2022-08-21T15:55:39;1.07;;;0.80;;
32365;SDS011;18837;46.832;16.838;2022-08-21T15:58:05;2.40;;;0.73;;
32365;SDS011;18837;46.832;16.838;2022-08-21T16:00:34;0.60;;;0.57;;
32365;SDS011;18837;46.832;16.838;2022-08-21T16:03:02;2.03;;;0.70;;
32365;SDS011;18837;46.832;16.838;2022-08-21T16:05:32;2.03;;;0.80;;
32365;SDS011;18837;46.832;16.838;2022-08-21T16:08:03;1.73;;;0.80;;
32365;SDS011;18837;46.832;16.838;2022-08-21T16:10:29;0.63;;;0.63;;
32365;SDS011;18837;46.832;16.838;2022-08-21T16:12:59;0.67;;;0.67;;
32365;SDS011;18837;46.832;16.838;2022-08-21T16:15:28;1.57;;;0.63;;
32365;SDS011;18837;46.832;16.838;2022-08-21T16:17:55;0.73;;;0.67;;